Time;durP1;ratioP1;P1;durP2;ratioP2;P2;SDS_P1;SDS_P2;PMS_P1;PMS_P2;Temp;Humidity;BMP_temperature;BMP_pressure;BME280_temperature;BME280_humidity;BME280_pressure;Samples;Min_cycle;Max_cycle;Signal;HPM_P1;HPM_P2
2021/10/10 00:01:12;;;;;;;8.23;5.55;;;;;;;16.34;40.35;102366.59;4983627;28;20813;-79
2021/10/10 00:03:39;;;;;;;9.02;5.82;;;;;;;16.31;40.33;102368.63;4991060;28;20560;-79
2021/10/10 00:06:05;;;;;;;11.30;6.50;;;;;;;16.28;40.62;102360.66;4991938;28;20157;-79
2021/10/10 00:08:32;;;;;;;7.80;5.82;;;;;;;16.25;40.42;102366.31;4990327;28;20054;-79
2021/10/10 00:10:59;;;;;;;7.78;5.80;;;;;;;16.20;40.49;102366.63;4968995;28;20104;-79
2021/10/10 00:13:25;;;;;;;7.65;5.68;;;;;;;16.18;40.39;102367.72;4948275;28;20046;-79
2021/10/10 00:15:52;;;;;;;7.80;5.70;;;;;;;16.15;40.27;102367.91;4993214;28;20141;-79
2021/10/10 00:18:21;;;;;;;8.02;5.60;;;;;;;16.13;40.51;102368.03;4958755;28;20494;-79
2021/10/10 00:20:47;;;;;;;7.85;5.20;;;;;;;16.11;40.49;102366.38;4980297;28;20421;-79
2021/10/10 00:23:14;;;;;;;9.05;5.70;;;;;;;16.08;40.53;102364.69;4996107;28;20050;-79
2021/10/10 00:25:40;;;;;;;8.93;5.10;;;;;;;16.06;40.40;102361.16;4991724;28;20453;-79
2021/10/10 00:28:07;;;;;;;8.00;5.55;;;;;;;16.05;40.35;102369.53;4969962;28;20050;-78
2021/10/10 00:30:34;;;;;;;7.85;5.88;;;;;;;16.02;40.40;102364.22;4990969;28;20077;-78
2021/10/10 00:33:00;;;;;;;8.00;5.65;;;;;;;15.99;40.29;102362.56;4964953;28;20038;-78
2021/10/10 00:35:27;;;;;;;7.47;5.18;;;;;;;15.96;40.65;102363.66;4991267;28;20482;-79
2021/10/10 00:37:54;;;;;;;8.07;5.50;;;;;;;15.93;40.36;102361.09;4962652;28;20054;-79
2021/10/10 00:40:21;;;;;;;9.45;5.97;;;;;;;15.92;40.37;102362.09;4974065;28;20069;-79
2021/10/10 00:42:47;;;;;;;9.30;5.78;;;;;;;15.91;40.25;102367.66;4990652;28;20568;-79
2021/10/10 00:45:14;;;;;;;8.02;5.30;;;;;;;15.88;40.21;102362.41;4991356;28;20065;-79
2021/10/10 00:47:42;;;;;;;8.32;5.65;;;;;;;15.86;40.47;102365.22;4949884;28;20073;-79
2021/10/10 00:50:10;;;;;;;7.00;4.75;;;;;;;15.85;40.19;102373.53;4975692;28;20134;-79
2021/10/10 00:52:41;;;;;;;7.40;5.07;;;;;;;15.85;40.09;102365.31;4966167;28;20164;-79
2021/10/10 00:55:08;;;;;;;7.05;5.03;;;;;;;15.81;40.54;102369.25;4990851;28;20085;-79
2021/10/10 00:57:40;;;;;;;7.97;5.53;;;;;;;15.80;40.37;102371.13;4984794;28;20101;-79
2021/10/10 01:00:08;;;;;;;10.23;5.68;;;;;;;15.77;40.39;102367.69;4990484;28;20680;-79
2021/10/10 01:02:36;;;;;;;8.30;5.72;;;;;;;15.76;40.29;102365.91;4965062;28;20058;-79
2021/10/10 01:05:04;;;;;;;8.25;5.28;;;;;;;15.73;39.98;102361.50;4991906;28;20050;-79
2021/10/10 01:07:31;;;;;;;7.20;5.22;;;;;;;15.70;40.19;102364.47;4988569;28;20054;-79
2021/10/10 01:09:59;;;;;;;8.23;5.43;;;;;;;15.68;40.30;102358.19;4990700;28;20050;-79
2021/10/10 01:12:26;;;;;;;7.45;5.32;;;;;;;15.66;40.63;102362.00;4989784;28;20061;-79
2021/10/10 01:14:53;;;;;;;8.98;5.63;;;;;;;15.64;40.25;102355.78;4992739;28;20112;-79
2021/10/10 01:17:23;;;;;;;7.95;5.18;;;;;;;15.64;40.38;102361.25;4966939;28;20108;-78
2021/10/10 01:19:51;;;;;;;7.55;5.40;;;;;;;15.59;40.30;102351.47;5002179;28;20117;-79
2021/10/10 01:22:18;;;;;;;7.70;5.40;;;;;;;15.54;40.48;102348.16;4966009;28;20083;-79
2021/10/10 01:24:46;;;;;;;7.97;5.18;;;;;;;15.52;40.49;102358.28;4990135;28;20457;-79
2021/10/10 01:27:13;;;;;;;7.93;5.93;;;;;;;15.50;40.35;102348.38;4973988;28;20452;-79
2021/10/10 01:29:41;;;;;;;9.88;5.40;;;;;;;15.48;40.29;102350.38;4980745;28;20340;-79
2021/10/10 01:32:07;;;;;;;8.88;5.65;;;;;;;15.44;40.30;102357.88;4990670;28;20469;-78
2021/10/10 01:34:34;;;;;;;8.80;5.32;;;;;;;15.42;40.64;102351.63;4984266;28;20077;-78
2021/10/10 01:37:00;;;;;;;7.65;5.35;;;;;;;15.40;40.46;102349.97;4974839;28;20078;-79
2021/10/10 01:39:28;;;;;;;9.38;5.50;;;;;;;15.37;40.28;102351.03;4988180;28;20532;-78
2021/10/10 01:41:55;;;;;;;8.27;5.40;;;;;;;15.35;40.04;102350.25;4965114;28;20166;-78
2021/10/10 01:44:21;;;;;;;8.27;5.63;;;;;;;15.34;40.35;102344.88;4973461;28;20054;-79
2021/10/10 01:46:50;;;;;;;8.63;5.57;;;;;;;15.31;40.47;102345.97;4967069;28;20482;-79
2021/10/10 01:49:17;;;;;;;8.98;5.43;;;;;;;15.29;40.41;102344.28;4972332;28;20081;-79
2021/10/10 01:51:43;;;;;;;8.57;5.35;;;;;;;15.27;40.15;102348.97;4977270;28;20105;-78
2021/10/10 01:54:10;;;;;;;8.10;5.45;;;;;;;15.24;40.67;102347.28;4972643;28;20097;-78
2021/10/10 01:56:37;;;;;;;8.20;5.25;;;;;;;15.22;40.48;102352.00;4980670;28;20448;-78
2021/10/10 01:59:03;;;;;;;7.90;5.53;;;;;;;15.19;40.62;102347.59;4977892;28;20077;-78
2021/10/10 02:01:30;;;;;;;8.10;4.95;;;;;;;15.16;40.46;102344.16;4991117;28;20086;-78
2021/10/10 02:03:57;;;;;;;8.18;5.30;;;;;;;15.14;40.86;102347.03;4989684;28;20097;-79
2021/10/10 02:06:23;;;;;;;8.32;5.40;;;;;;;15.10;40.46;102350.91;4982632;28;20446;-79
2021/10/10 02:08:50;;;;;;;8.57;5.53;;;;;;;15.08;40.64;102346.50;4988106;28;20058;-78
2021/10/10 02:11:17;;;;;;;6.75;5.03;;;;;;;15.04;40.50;102348.56;4991121;28;20445;-78
2021/10/10 02:13:43;;;;;;;7.13;4.82;;;;;;;15.02;40.53;102344.16;4973527;28;20524;-79
2021/10/10 02:16:11;;;;;;;8.02;5.40;;;;;;;15.00;40.60;102346.97;4974909;28;20050;-78
2021/10/10 02:18:38;;;;;;;8.20;5.32;;;;;;;14.96;40.54;102347.28;4982842;28;20096;-78
2021/10/10 02:21:04;;;;;;;7.45;5.45;;;;;;;14.94;40.58;102344.63;4994696;28;20050;-78
2021/10/10 02:23:31;;;;;;;7.95;5.55;;;;;;;14.91;40.77;102336.59;4972939;28;20050;-78
2021/10/10 02:25:58;;;;;;;8.40;5.57;;;;;;;14.90;41.00;102333.97;4994655;28;20054;-78
2021/10/10 02:28:24;;;;;;;8.80;5.40;;;;;;;14.87;40.80;102335.03;4969795;28;20058;-78
2021/10/10 02:30:51;;;;;;;7.55;5.43;;;;;;;14.84;40.58;102327.00;4980596;28;20082;-78
2021/10/10 02:33:18;;;;;;;7.78;4.68;;;;;;;14.82;40.44;102331.72;4993341;28;20133;-78
2021/10/10 02:35:45;;;;;;;8.77;5.68;;;;;;;14.80;40.56;102328.19;4993312;28;20109;-78
2021/10/10 02:38:12;;;;;;;8.55;5.25;;;;;;;14.77;40.62;102329.25;4967858;28;20074;-79
2021/10/10 02:40:38;;;;;;;7.55;4.82;;;;;;;14.75;40.50;102328.44;4992829;28;20092;-79
2021/10/10 02:43:05;;;;;;;8.73;5.65;;;;;;;14.73;40.52;102327.69;4953183;28;20106;-79
2021/10/10 02:45:33;;;;;;;8.73;5.35;;;;;;;14.71;40.85;102335.09;4993565;28;20050;-79
2021/10/10 02:47:59;;;;;;;7.90;5.50;;;;;;;14.68;40.60;102329.81;4990042;28;20043;-78
2021/10/10 02:50:26;;;;;;;7.70;5.18;;;;;;;14.67;40.75;102329.88;4991450;28;20081;-79
2021/10/10 02:52:52;;;;;;;9.20;5.10;;;;;;;14.64;40.93;102325.50;4994476;28;20505;-78
2021/10/10 02:55:19;;;;;;;8.50;5.22;;;;;;;14.61;40.80;102322.94;4993213;28;20062;-79
2021/10/10 02:57:46;;;;;;;8.65;5.13;;;;;;;14.59;40.90;102327.63;4991575;28;20096;-78
2021/10/10 03:00:12;;;;;;;8.75;5.35;;;;;;;14.57;40.82;102326.84;4993245;28;20092;-79
2021/10/10 03:02:39;;;;;;;11.13;5.75;;;;;;;14.55;40.77;102330.66;4992475;28;20046;-79
2021/10/10 03:05:06;;;;;;;8.07;5.10;;;;;;;14.52;40.44;102328.09;4992371;28;20051;-79
2021/10/10 03:07:33;;;;;;;7.07;4.93;;;;;;;14.50;40.70;102327.28;4988378;28;20078;-79
2021/10/10 03:09:59;;;;;;;7.03;4.68;;;;;;;14.48;40.80;102330.13;4984826;28;20085;-78
2021/10/10 03:12:26;;;;;;;8.40;5.30;;;;;;;14.46;41.03;102326.59;4966486;28;20084;-79
2021/10/10 03:14:52;;;;;;;7.85;5.05;;;;;;;14.45;40.96;102327.56;4983883;28;20133;-78
2021/10/10 03:17:19;;;;;;;9.13;5.38;;;;;;;14.42;40.97;102320.44;4991399;28;20113;-79
2021/10/10 03:19:46;;;;;;;6.75;4.68;;;;;;;14.40;40.95;102318.78;4991876;28;20116;-78
2021/10/10 03:22:12;;;;;;;7.28;4.75;;;;;;;14.38;40.58;102327.06;4990872;28;20114;-79
2021/10/10 03:24:39;;;;;;;8.27;5.05;;;;;;;14.37;40.99;102321.66;4993641;28;20054;-78
2021/10/10 03:27:05;;;;;;;9.18;5.40;;;;;;;14.35;41.07;102323.59;4967488;28;20133;-78
2021/10/10 03:29:32;;;;;;;7.22;4.88;;;;;;;14.33;40.98;102320.09;4999489;28;20050;-79
2021/10/10 03:31:58;;;;;;;8.02;4.90;;;;;;;14.31;40.86;102317.44;4965864;28;20787;-79
2021/10/10 03:34:25;;;;;;;7.15;4.93;;;;;;;14.29;40.92;102324.84;5002685;28;20046;-79
2021/10/10 03:36:52;;;;;;;7.47;5.00;;;;;;;14.28;40.87;102317.63;4993508;28;20677;-79
2021/10/10 03:39:19;;;;;;;8.80;5.32;;;;;;;14.26;41.10;102311.34;4992068;28;20457;-78
2021/10/10 03:41:45;;;;;;;8.40;5.15;;;;;;;14.24;41.01;102315.16;5012385;28;20764;-78
2021/10/10 03:44:12;;;;;;;8.30;4.90;;;;;;;14.21;40.99;102308.03;4978887;28;20050;-79
2021/10/10 03:46:38;;;;;;;7.43;4.90;;;;;;;14.19;41.10;102298.16;4977602;28;20050;-78
2021/10/10 03:49:05;;;;;;;8.63;5.18;;;;;;;14.16;40.93;102301.97;4983228;28;20053;-78
2021/10/10 03:51:32;;;;;;;9.15;5.90;;;;;;;14.13;41.08;102306.72;4978158;28;20050;-78
2021/10/10 03:56:40;;;;;;;7.03;5.28;;;;;;;14.04;41.04;102294.47;4994729;28;20469;-78
2021/10/10 03:59:07;;;;;;;7.53;5.18;;;;;;;14.00;40.75;102291.03;4974533;28;20670;-78
2021/10/10 04:01:33;;;;;;;7.38;4.88;;;;;;;13.98;41.17;102292.09;4975733;28;20694;-78
2021/10/10 04:04:00;;;;;;;9.15;5.22;;;;;;;13.94;41.48;102285.94;4974586;28;20502;-79
2021/10/10 04:06:27;;;;;;;8.32;6.10;;;;;;;13.91;41.27;102286.13;4975400;28;20067;-79
2021/10/10 04:08:53;;;;;;;7.72;5.43;;;;;;;13.89;41.14;102288.06;4952655;28;20066;-79
2021/10/10 04:11:20;;;;;;;7.72;5.25;;;;;;;13.88;41.14;102290.88;4992300;28;20057;-79
2021/10/10 04:13:46;;;;;;;8.02;5.38;;;;;;;13.85;41.25;102283.72;4992696;28;20046;-78
2021/10/10 04:16:13;;;;;;;9.10;4.90;;;;;;;13.85;41.54;102286.47;4994178;28;20046;-79
2021/10/10 04:18:40;;;;;;;8.77;5.50;;;;;;;13.83;41.40;102282.97;4985057;28;20062;-79
2021/10/10 04:21:06;;;;;;;9.80;6.05;;;;;;;13.83;41.59;102284.81;4993459;28;20093;-79
2021/10/10 04:23:33;;;;;;;8.00;5.07;;;;;;;13.83;41.44;102288.44;4992512;28;20085;-79
2021/10/10 04:26:00;;;;;;;8.25;5.28;;;;;;;13.82;41.41;102285.78;4994063;28;20201;-79
2021/10/10 04:28:27;;;;;;;8.93;5.22;;;;;;;13.81;41.22;102292.19;4967454;28;20109;-78
2021/10/10 04:30:53;;;;;;;7.65;5.20;;;;;;;13.78;41.42;102287.78;4994450;28;20081;-79
2021/10/10 04:33:20;;;;;;;7.43;4.95;;;;;;;13.79;41.14;102283.22;4943635;28;20062;-79
2021/10/10 04:35:48;;;;;;;7.97;5.57;;;;;;;13.78;41.17;102286.91;4992410;28;20054;-79
2021/10/10 04:38:16;;;;;;;8.02;4.95;;;;;;;13.78;41.13;102292.38;4961364;28;20046;-79
2021/10/10 04:40:44;;;;;;;7.13;4.88;;;;;;;13.77;41.24;102291.47;4997584;28;20082;-79
2021/10/10 04:43:10;;;;;;;8.52;4.95;;;;;;;13.76;41.45;102288.84;4993149;28;20054;-79
2021/10/10 04:45:37;;;;;;;8.98;5.22;;;;;;;13.74;41.39;102288.94;4991877;28;20050;-79
2021/10/10 04:48:04;;;;;;;7.25;5.20;;;;;;;13.73;41.21;102287.19;4973649;28;20101;-79
2021/10/10 04:50:30;;;;;;;7.70;4.80;;;;;;;13.73;41.11;102292.66;4974200;28;20494;-79
2021/10/10 04:52:57;;;;;;;8.57;5.30;;;;;;;13.72;41.11;102293.59;4950753;28;20080;-79
2021/10/10 04:55:23;;;;;;;7.38;4.90;;;;;;;13.70;41.06;102290.97;4988917;28;20619;-79
2021/10/10 04:57:52;;;;;;;8.85;5.35;;;;;;;13.70;41.19;102293.69;4972809;28;20050;-79
2021/10/10 05:00:18;;;;;;;8.43;5.03;;;;;;;13.70;41.50;102295.53;4984148;28;20058;-79
2021/10/10 05:02:45;;;;;;;8.52;5.28;;;;;;;13.69;41.38;102300.13;4993526;28;20046;-79
2021/10/10 05:05:12;;;;;;;8.15;5.20;;;;;;;13.68;41.27;102305.66;4976660;28;20101;-79
2021/10/10 05:07:38;;;;;;;7.78;5.50;;;;;;;13.67;41.57;102306.66;4993204;28;20046;-79
2021/10/10 05:10:05;;;;;;;7.82;5.40;;;;;;;13.66;41.56;102304.88;5001019;28;20133;-79
2021/10/10 05:12:32;;;;;;;9.13;5.80;;;;;;;13.64;41.58;102304.97;4976076;28;20043;-79
2021/10/10 05:14:58;;;;;;;10.40;5.82;;;;;;;13.64;41.30;102307.69;5011293;28;20022;-78
2021/10/10 05:17:25;;;;;;;8.05;5.13;;;;;;;13.63;41.44;102305.03;4986530;28;20062;-80
2021/10/10 05:19:52;;;;;;;9.68;5.90;;;;;;;13.61;41.49;102304.25;5009609;28;20042;-79
2021/10/10 05:22:18;;;;;;;10.63;6.20;;;;;;;13.59;41.49;102306.16;4960274;28;20552;-78
2021/10/10 05:24:45;;;;;;;8.55;5.63;;;;;;;13.58;41.48;102304.44;4973915;28;20058;-79
2021/10/10 05:27:11;;;;;;;7.97;5.13;;;;;;;13.57;41.45;102306.28;4992650;28;20126;-79
2021/10/10 05:29:41;;;;;;;8.38;5.50;;;;;;;13.56;41.31;102314.56;4975004;28;20102;-79
2021/10/10 05:32:08;;;;;;;8.55;5.40;;;;;;;13.54;41.45;102309.16;4964311;28;20109;-79
2021/10/10 05:34:34;;;;;;;7.80;5.55;;;;;;;13.54;41.34;102311.03;4989644;28;20082;-79
2021/10/10 05:37:01;;;;;;;7.95;5.28;;;;;;;13.51;41.42;102312.06;4992108;28;20360;-79
2021/10/10 05:39:28;;;;;;;8.32;5.15;;;;;;;13.49;41.53;102316.75;5000912;28;20108;-79
2021/10/10 05:41:55;;;;;;;8.35;5.13;;;;;;;13.48;41.37;102312.25;4992744;28;20050;-79
2021/10/10 05:44:21;;;;;;;7.95;5.38;;;;;;;13.46;41.51;102306.00;4993212;28;20050;-79
2021/10/10 05:46:48;;;;;;;8.43;5.47;;;;;;;13.46;41.58;102316.03;4974437;28;20058;-79
2021/10/10 05:49:15;;;;;;;8.52;5.32;;;;;;;13.45;41.62;102314.25;4972181;28;20046;-79
2021/10/10 05:51:45;;;;;;;10.07;5.55;;;;;;;13.42;41.71;102309.00;4993465;28;20105;-79
2021/10/10 05:54:14;;;;;;;8.13;5.03;;;;;;;13.42;41.49;102309.88;4975330;28;20054;-79
2021/10/10 05:56:40;;;;;;;10.32;5.28;;;;;;;13.40;41.63;102309.06;4975701;28;20054;-78
2021/10/10 05:59:09;;;;;;;7.97;5.05;;;;;;;13.40;41.50;102311.81;4992091;28;20046;-78
2021/10/10 06:01:38;;;;;;;8.88;5.18;;;;;;;13.39;41.79;102315.50;4992865;28;20133;-79
2021/10/10 06:04:06;;;;;;;8.15;5.32;;;;;;;13.37;41.37;102316.53;5004265;28;20070;-78
2021/10/10 06:06:33;;;;;;;7.45;5.30;;;;;;;13.36;42.07;102314.75;4985688;28;20076;-78
2021/10/10 06:09:00;;;;;;;10.23;5.43;;;;;;;13.34;41.64;102321.19;4988805;28;20482;-78
2021/10/10 06:11:27;;;;;;;7.97;5.63;;;;;;;13.34;41.47;102325.78;4973412;28;20450;-79
2021/10/10 06:13:54;;;;;;;10.15;5.70;;;;;;;13.32;41.53;102325.88;4939942;28;20078;-79
2021/10/10 06:16:21;;;;;;;8.63;5.65;;;;;;;13.32;41.50;102320.41;4975665;28;20050;-79
2021/10/10 06:18:47;;;;;;;7.93;5.20;;;;;;;13.32;41.47;102319.53;4974120;28;20064;-80
2021/10/10 06:21:14;;;;;;;8.90;5.55;;;;;;;13.32;41.47;102322.25;4988080;28;20502;-79
2021/10/10 06:23:41;;;;;;;8.27;5.57;;;;;;;13.32;41.75;102320.41;4976044;28;20741;-79
2021/10/10 06:26:08;;;;;;;8.65;5.55;;;;;;;13.30;41.74;102310.53;4978429;28;20461;-79
2021/10/10 06:28:35;;;;;;;9.23;5.28;;;;;;;13.30;41.68;102314.16;4975057;28;20075;-79
2021/10/10 06:31:01;;;;;;;8.02;5.80;;;;;;;13.32;41.72;102319.53;4992198;28;20072;-79
2021/10/10 06:33:28;;;;;;;8.38;5.68;;;;;;;13.33;42.13;102314.00;4984124;28;20050;-79
2021/10/10 06:35:55;;;;;;;9.82;6.03;;;;;;;13.34;42.25;102310.28;4974246;28;20530;-79
2021/10/10 06:38:21;;;;;;;9.07;5.93;;;;;;;13.36;42.05;102315.66;4996666;28;20440;-78
2021/10/10 06:40:48;;;;;;;9.38;6.15;;;;;;;13.37;42.48;102311.97;4991035;28;20497;-79
2021/10/10 06:43:14;;;;;;;9.20;5.78;;;;;;;13.41;42.40;102326.31;4972847;28;20051;-77
2021/10/10 06:45:41;;;;;;;10.48;5.95;;;;;;;13.44;42.22;102320.69;4982387;28;20085;-79
2021/10/10 06:48:08;;;;;;;8.02;5.53;;;;;;;13.45;42.61;102317.88;4974090;28;20051;-78
2021/10/10 06:50:34;;;;;;;9.90;6.18;;;;;;;13.49;42.79;102326.78;4990843;28;20078;-78
2021/10/10 06:53:01;;;;;;;8.77;5.75;;;;;;;13.51;42.16;102322.09;4975364;28;20085;-77
2021/10/10 06:55:28;;;;;;;8.60;5.80;;;;;;;13.54;42.52;102330.13;4979140;28;20059;-78
2021/10/10 06:57:54;;;;;;;10.40;6.30;;;;;;;13.55;42.83;102323.69;4983282;28;20185;-78
2021/10/10 07:00:21;;;;;;;10.90;6.10;;;;;;;13.58;42.48;102327.16;4981825;28;20649;-78
2021/10/10 07:02:47;;;;;;;10.13;5.82;;;;;;;13.60;42.61;102316.13;4974608;28;20104;-78
2021/10/10 07:05:16;;;;;;;10.15;6.22;;;;;;;13.62;42.87;102316.94;4993901;28;20651;-77
2021/10/10 07:07:42;;;;;;;10.20;6.28;;;;;;;13.64;42.53;102313.16;4984994;28;20452;-78
2021/10/10 07:10:10;;;;;;;10.05;6.15;;;;;;;13.65;42.55;102316.75;5001731;28;20050;-79
2021/10/10 07:12:37;;;;;;;9.15;6.00;;;;;;;13.66;42.43;102316.69;4977873;28;20058;-79
2021/10/10 07:15:07;;;;;;;9.35;5.80;;;;;;;13.69;42.54;102316.50;5011784;28;20108;-78
2021/10/10 07:17:34;;;;;;;9.82;6.22;;;;;;;13.71;42.63;102321.88;4979197;28;20050;-78
2021/10/10 07:20:19;;;;;;;11.65;6.00;;;;;;;13.74;43.03;102313.50;4986976;28;20047;-77
2021/10/10 07:22:57;;;;;;;10.43;7.03;;;;;;;13.75;42.82;102314.41;4970204;28;20501;-77
2021/10/10 07:25:24;;;;;;;8.73;5.75;;;;;;;13.76;42.64;102310.66;4978629;28;20109;-77
2021/10/10 07:27:50;;;;;;;12.85;7.20;;;;;;;13.78;42.80;102317.81;4959343;28;20050;-77
2021/10/10 07:30:17;;;;;;;10.43;6.32;;;;;;;13.81;42.99;102320.38;4988168;28;20074;-77
2021/10/10 07:32:43;;;;;;;10.40;6.32;;;;;;;13.84;43.12;102316.56;4935882;28;20109;-78
2021/10/10 07:35:10;;;;;;;9.45;6.43;;;;;;;13.86;43.04;102310.06;4995577;28;20050;-78
2021/10/10 07:37:37;;;;;;;9.02;5.97;;;;;;;13.90;43.02;102316.25;4967298;28;20516;-78
2021/10/10 07:40:05;;;;;;;10.15;6.18;;;;;;;13.93;43.07;102321.50;5001473;28;20042;-78
2021/10/10 07:42:32;;;;;;;11.35;6.80;;;;;;;13.95;42.76;102328.66;4965082;28;20101;-78
2021/10/10 07:45:20;;;;;;;13.20;7.35;;;;;;;13.99;42.81;102330.25;4975933;28;20113;-78
2021/10/10 07:47:49;;;;;;;10.95;6.72;;;;;;;14.01;43.26;102319.22;4992157;28;20445;-78
2021/10/10 07:50:17;;;;;;;11.10;7.63;;;;;;;14.06;42.93;102320.72;4994055;28;20046;-78
2021/10/10 07:52:44;;;;;;;11.50;7.00;;;;;;;14.09;43.43;102317.81;5001126;28;20066;-78
2021/10/10 07:55:11;;;;;;;12.90;7.35;;;;;;;14.11;43.02;102317.72;4995347;28;20050;-78
2021/10/10 07:57:38;;;;;;;11.35;7.18;;;;;;;14.16;43.28;102312.00;4985721;28;20050;-77
2021/10/10 08:00:06;;;;;;;11.20;7.63;;;;;;;14.20;43.17;102324.50;4979456;28;20449;-78
2021/10/10 08:02:33;;;;;;;10.02;7.28;;;;;;;14.23;43.16;102327.06;4976422;28;20070;-78
2021/10/10 08:04:59;;;;;;;11.38;7.22;;;;;;;14.26;42.97;102341.41;4969624;28;20081;-77
2021/10/10 08:07:26;;;;;;;12.10;7.60;;;;;;;14.28;43.18;102336.75;4993449;28;20046;-78
2021/10/10 08:09:53;;;;;;;11.63;6.80;;;;;;;14.31;43.11;102344.75;5005146;28;20049;-77
2021/10/10 08:12:19;;;;;;;11.60;6.80;;;;;;;14.35;43.18;102346.31;4976571;28;20053;-80
2021/10/10 08:14:46;;;;;;;11.80;7.47;;;;;;;14.39;43.35;102349.81;4980135;28;20406;-80
2021/10/10 08:17:13;;;;;;;9.75;6.53;;;;;;;14.41;43.14;102346.00;4970689;28;20113;-80
2021/10/10 08:19:39;;;;;;;11.20;6.63;;;;;;;14.46;43.03;102348.47;4974419;28;20061;-83
2021/10/10 08:22:06;;;;;;;12.10;7.05;;;;;;;14.49;43.05;102352.88;4971710;28;20059;-78
2021/10/10 08:24:33;;;;;;;11.13;7.05;;;;;;;14.52;42.93;102356.28;4993277;28;20082;-77
2021/10/10 08:27:00;;;;;;;12.52;7.28;;;;;;;14.55;43.00;102353.41;4988650;28;20793;-76
2021/10/10 08:29:26;;;;;;;11.00;6.95;;;;;;;14.58;43.09;102353.19;4968585;28;20114;-76
2021/10/10 08:31:53;;;;;;;11.23;6.65;;;;;;;14.62;43.09;102351.16;4961156;28;20082;-75
2021/10/10 08:34:20;;;;;;;10.77;6.45;;;;;;;14.64;42.96;102352.84;4984059;28;20081;-76
2021/10/10 08:36:47;;;;;;;11.90;7.80;;;;;;;14.67;43.22;102344.44;4979109;28;20104;-76
2021/10/10 08:39:14;;;;;;;10.43;7.00;;;;;;;14.71;43.53;102339.69;4987547;28;20483;-80
2021/10/10 08:41:45;;;;;;;12.32;7.50;;;;;;;14.75;43.99;102336.66;4993102;28;20422;-81
2021/10/10 08:44:17;;;;;;;10.20;6.93;;;;;;;14.77;43.45;102331.09;4988896;28;20054;-83
2021/10/10 08:46:44;;;;;;;13.90;7.95;;;;;;;14.83;43.81;102325.25;4973054;28;20058;-82
2021/10/10 08:49:11;;;;;;;10.55;6.57;;;;;;;14.88;44.26;102323.13;4991902;28;20046;-82
2021/10/10 08:51:38;;;;;;;10.82;7.00;;;;;;;14.94;44.13;102327.31;5011922;28;20077;-82
2021/10/10 08:54:05;;;;;;;10.07;6.60;;;;;;;15.00;43.86;102321.47;4978624;28;20144;-81
2021/10/10 08:56:32;;;;;;;11.15;6.85;;;;;;;15.06;43.74;102322.00;4991307;28;20050;-75
2021/10/10 08:59:02;;;;;;;11.77;7.75;;;;;;;15.13;43.73;102323.38;4993957;28;20057;-76
2021/10/10 09:01:32;;;;;;;10.77;6.55;;;;;;;15.18;43.74;102318.47;4991386;28;20062;-76
2021/10/10 09:03:59;;;;;;;11.07;7.65;;;;;;;15.27;43.40;102327.97;4990807;28;20046;-75
2021/10/10 09:06:26;;;;;;;11.13;7.03;;;;;;;15.32;43.73;102311.28;4975202;28;20094;-78
2021/10/10 09:08:53;;;;;;;11.27;7.28;;;;;;;15.36;43.47;102302.75;4966176;28;20070;-75
2021/10/10 09:11:20;;;;;;;11.68;7.63;;;;;;;15.41;43.05;102300.59;4986361;28;20059;-76
2021/10/10 09:13:59;;;;;;;11.02;7.45;;;;;;;15.46;42.99;102290.25;4973430;28;20492;-75
2021/10/10 09:16:35;;;;;;;12.27;8.15;;;;;;;15.50;43.40;102294.53;4995681;28;20082;-76
2021/10/10 09:19:25;;;;;;;12.73;7.70;;;;;;;15.54;42.88;102290.66;4992180;28;20080;-75
2021/10/10 09:22:04;;;;;;;11.82;7.53;;;;;;;15.61;43.12;102288.41;4967397;28;20133;-76
2021/10/10 09:24:31;;;;;;;10.50;6.53;;;;;;;15.64;43.03;102290.06;4975760;28;20241;-76
2021/10/10 09:26:58;;;;;;;10.27;6.88;;;;;;;15.69;43.02;102288.78;4965347;28;20097;-76
2021/10/10 09:29:39;;;;;;;10.50;6.82;;;;;;;15.77;43.00;102305.56;4991460;28;20108;-75
2021/10/10 09:32:08;;;;;;;9.85;6.78;;;;;;;15.81;43.07;102315.34;4966527;28;20090;-76
2021/10/10 09:34:39;;;;;;;9.95;7.10;;;;;;;15.89;43.30;102318.47;4991885;28;20101;-75
2021/10/10 09:37:21;;;;;;;11.85;7.55;;;;;;;15.94;42.91;102321.78;4990856;28;20070;-76
2021/10/10 09:39:58;;;;;;;10.13;6.40;;;;;;;16.02;42.95;102323.13;4992276;28;20042;-75
2021/10/10 09:42:37;;;;;;;10.80;6.18;;;;;;;16.10;42.78;102321.63;4991343;28;20548;-75
2021/10/10 09:45:20;;;;;;;12.30;6.50;;;;;;;16.19;43.17;102320.16;4985179;28;20050;-76
2021/10/10 09:47:59;;;;;;;10.35;6.47;;;;;;;16.24;43.16;102323.44;4973926;28;20073;-75
2021/10/10 09:50:31;;;;;;;9.93;6.50;;;;;;;16.34;43.18;102321.84;4993375;28;20108;-75
2021/10/10 09:52:59;;;;;;;9.10;5.90;;;;;;;16.42;43.27;102316.72;4999723;28;20046;-75
2021/10/10 09:55:28;;;;;;;8.80;6.55;;;;;;;16.53;43.30;102321.47;4999020;28;20317;-76
2021/10/10 09:57:54;;;;;;;9.18;6.03;;;;;;;16.63;43.25;102318.03;4947621;28;20104;-76
2021/10/10 10:00:25;;;;;;;9.88;6.85;;;;;;;16.77;43.55;102310.72;4990699;28;20519;-76
2021/10/10 10:03:11;;;;;;;10.32;6.35;;;;;;;16.90;42.79;102312.47;4990545;28;20072;-76
2021/10/10 10:05:38;;;;;;;9.30;6.13;;;;;;;16.99;43.15;102309.09;4982085;28;20129;-76
2021/10/10 10:08:05;;;;;;;9.88;6.43;;;;;;;17.10;43.02;102311.97;4989744;28;20075;-76
2021/10/10 10:10:34;;;;;;;9.38;6.53;;;;;;;17.21;42.94;102308.47;4990521;28;20133;-76
2021/10/10 10:13:02;;;;;;;9.57;6.80;;;;;;;17.33;42.55;102317.66;4965359;28;20062;-76
2021/10/10 10:15:31;;;;;;;9.65;6.25;;;;;;;17.43;42.50;102316.00;4990870;28;20156;-75
2021/10/10 10:17:59;;;;;;;8.07;5.82;;;;;;;17.53;42.62;102321.72;4989441;28;20117;-76
2021/10/10 10:20:28;;;;;;;9.43;6.35;;;;;;;17.63;42.55;102325.56;4990720;28;20054;-76
2021/10/10 10:22:57;;;;;;;10.02;5.95;;;;;;;17.75;42.91;102319.19;4990265;28;20411;-76
2021/10/10 10:25:28;;;;;;;9.20;6.38;;;;;;;17.85;42.53;102321.16;4991016;28;20046;-76
2021/10/10 10:27:55;;;;;;;8.48;6.25;;;;;;;17.96;42.55;102314.81;4989265;28;20054;-76
2021/10/10 10:30:24;;;;;;;10.75;7.10;;;;;;;18.08;42.49;102322.16;4989697;28;20490;-76
2021/10/10 10:32:54;;;;;;;9.57;6.68;;;;;;;18.22;41.88;102324.75;4963431;28;20050;-76
2021/10/10 10:35:22;;;;;;;10.32;7.32;;;;;;;18.31;42.37;102328.66;4990222;28;20104;-76
2021/10/10 10:37:50;;;;;;;11.38;7.75;;;;;;;18.44;42.39;102331.38;4991407;28;20050;-76
2021/10/10 10:40:20;;;;;;;10.30;6.95;;;;;;;18.52;42.19;102327.03;4994584;28;20043;-76
2021/10/10 10:42:50;;;;;;;12.90;7.35;;;;;;;18.66;41.86;102328.75;4993898;28;20400;-76
2021/10/10 10:45:48;;;;;;;11.13;7.63;;;;;;;18.71;41.37;102322.88;4991825;28;20054;-75
2021/10/10 10:48:31;;;;;;;9.63;6.90;;;;;;;18.86;41.61;102313.44;4964464;28;20054;-77
2021/10/10 10:51:28;;;;;;;10.18;6.72;;;;;;;18.97;41.44;102324.47;4976150;28;20596;-77
2021/10/10 10:54:33;;;;;;;10.40;7.05;;;;;;;19.08;41.28;102320.88;5007599;28;20053;-77
2021/10/10 10:57:00;;;;;;;9.80;6.82;;;;;;;19.17;41.87;102321.03;4954077;28;20054;-77
2021/10/10 11:00:12;;;;;;;11.35;7.25;;;;;;;19.30;40.76;102305.25;4992692;28;20101;-77
2021/10/10 11:02:51;;;;;;;10.25;7.07;;;;;;;19.45;40.81;102307.75;4947418;28;20533;-76
2021/10/10 11:05:42;;;;;;;10.77;6.75;;;;;;;19.53;40.65;102305.28;4974678;28;20326;-77
2021/10/10 11:08:17;;;;;;;9.98;6.95;;;;;;;19.63;40.29;102284.25;4967377;28;20078;-77
2021/10/10 11:11:09;;;;;;;11.00;7.68;;;;;;;19.69;39.89;102306.66;4993215;28;20046;-76
2021/10/10 11:13:44;;;;;;;11.73;7.78;;;;;;;19.79;39.89;102305.91;4935671;28;20383;-77
2021/10/10 11:16:16;;;;;;;12.27;7.13;;;;;;;19.85;39.97;102288.91;4993142;28;20465;-77
2021/10/10 11:18:47;;;;;;;12.95;7.80;;;;;;;19.89;40.48;102282.97;4992876;28;20523;-77
2021/10/10 11:21:20;;;;;;;9.85;7.00;;;;;;;19.96;39.98;102286.09;4993821;28;20105;-79
2021/10/10 11:23:55;;;;;;;9.63;7.35;;;;;;;20.00;40.29;102282.09;4966812;28;20050;-78
2021/10/10 11:26:28;;;;;;;11.57;7.88;;;;;;;20.07;39.94;102266.78;4993052;28;20129;-77
2021/10/10 11:29:00;;;;;;;12.25;8.25;;;;;;;20.13;39.77;102269.88;4982851;28;20058;-77
2021/10/10 11:31:32;;;;;;;9.05;7.22;;;;;;;20.21;39.48;102257.31;4993353;28;20093;-78